Time;durP1;ratioP1;P1;durP2;ratioP2;P2;SDS_P1;SDS_P2;PMS_P1;PMS_P2;Temp;Humidity;BMP_temperature;BMP_pressure;BME280_temperature;BME280_humidity;BME280_pressure;Samples;Min_cycle;Max_cycle;Signal;HPM_P1;HPM_P2
2023/07/23 00:01:49;;;;;;;6.20;5.60;;;18.40;70.70;;;;;;5153055;28;20902;-48
2023/07/23 00:04:20;;;;;;;6.93;4.83;;;18.40;70.40;;;;;;5160823;28;20436;-48
2023/07/23 00:06:51;;;;;;;6.50;5.00;;;18.30;70.70;;;;;;5159438;28;20195;-49
2023/07/23 00:09:21;;;;;;;5.03;4.60;;;18.30;70.30;;;;;;5161910;28;20191;-48
2023/07/23 00:11:53;;;;;;;5.10;4.63;;;18.40;70.40;;;;;;5159678;28;20209;-49
2023/07/23 00:14:23;;;;;;;5.23;4.73;;;18.30;70.50;;;;;;5165500;28;20196;-48
2023/07/23 00:16:54;;;;;;;6.70;4.73;;;18.40;70.20;;;;;;5154873;28;20436;-47
2023/07/23 00:19:25;;;;;;;6.23;5.60;;;18.30;70.00;;;;;;5164758;28;20185;-49
2023/07/23 00:21:55;;;;;;;5.60;4.93;;;18.40;69.80;;;;;;5158089;28;20232;-49
2023/07/23 00:24:27;;;;;;;7.40;4.73;;;18.30;70.40;;;;;;5158018;28;20189;-48
2023/07/23 00:26:57;;;;;;;5.80;4.90;;;18.30;69.90;;;;;;5158045;28;20332;-48
2023/07/23 00:29:28;;;;;;;7.60;4.70;;;18.50;69.40;;;;;;5162198;28;20534;-47
2023/07/23 00:31:58;;;;;;;5.23;4.73;;;18.40;69.50;;;;;;5142848;28;20310;-48
2023/07/23 00:34:29;;;;;;;4.63;4.23;;;18.60;68.80;;;;;;5143842;28;20220;-47
2023/07/23 00:37:00;;;;;;;5.30;4.87;;;18.50;68.20;;;;;;5155035;28;20282;-49
2023/07/23 00:39:30;;;;;;;4.87;4.30;;;18.50;68.60;;;;;;5154659;28;20271;-48
2023/07/23 00:42:01;;;;;;;8.13;5.23;;;18.40;68.80;;;;;;5152345;28;20208;-48
2023/07/23 00:44:32;;;;;;;4.70;4.30;;;18.30;69.40;;;;;;5156102;28;20676;-48
2023/07/23 00:47:03;;;;;;;7.20;4.90;;;18.20;69.70;;;;;;5154640;28;20191;-49
2023/07/23 00:49:34;;;;;;;6.40;4.90;;;18.30;69.40;;;;;;5155024;28;20601;-48
2023/07/23 00:52:06;;;;;;;4.70;4.30;;;18.30;70.00;;;;;;5150721;28;20212;-48
2023/07/23 00:54:37;;;;;;;4.87;4.50;;;18.30;69.70;;;;;;5152077;28;20532;-47
2023/07/23 00:57:10;;;;;;;7.83;4.83;;;18.30;69.70;;;;;;5151414;28;21041;-47
2023/07/23 00:59:41;;;;;;;7.33;4.90;;;18.20;69.80;;;;;;5153345;28;20726;-48
2023/07/23 01:02:12;;;;;;;4.90;4.40;;;18.20;70.50;;;;;;5157353;28;20467;-48
2023/07/23 01:04:42;;;;;;;5.00;4.40;;;18.10;70.50;;;;;;5151899;28;20194;-49
2023/07/23 01:07:13;;;;;;;4.43;4.03;;;18.20;70.90;;;;;;5151408;28;20194;-48
2023/07/23 01:09:44;;;;;;;5.17;4.73;;;18.20;70.50;;;;;;5152078;28;20268;-48
2023/07/23 01:12:17;;;;;;;4.60;4.30;;;18.20;70.70;;;;;;5150187;28;20689;-48
2023/07/23 01:14:48;;;;;;;9.70;4.27;;;18.30;70.40;;;;;;5154258;28;20921;-48
2023/07/23 01:17:19;;;;;;;6.67;5.77;;;18.20;70.50;;;;;;5153424;28;20532;-49
2023/07/23 01:20:03;;;;;;;12.00;5.77;;;18.10;71.30;;;;;;5154512;28;20188;-48
2023/07/23 01:22:35;;;;;;;6.47;4.37;;;18.30;71.10;;;;;;5152120;28;21060;-48
2023/07/23 01:25:06;;;;;;;4.80;4.33;;;18.30;70.70;;;;;;5154056;28;20524;-48
2023/07/23 01:27:36;;;;;;;11.10;5.23;;;18.30;70.70;;;;;;5154336;28;20493;-49
2023/07/23 01:30:10;;;;;;;7.23;4.90;;;18.50;69.80;;;;;;5157115;28;20529;-48
2023/07/23 01:32:41;;;;;;;5.43;3.93;;;18.50;70.10;;;;;;5154109;28;20209;-49
2023/07/23 01:35:15;;;;;;;5.30;4.60;;;18.30;70.30;;;;;;5187213;28;20971;-49
2023/07/23 01:37:47;;;;;;;4.87;4.07;;;18.30;70.20;;;;;;5152490;28;20213;-48
2023/07/23 01:40:19;;;;;;;6.83;4.40;;;18.30;70.60;;;;;;5159369;28;21031;-47
2023/07/23 01:42:50;;;;;;;4.93;4.50;;;18.50;70.20;;;;;;5150591;28;20855;-48
2023/07/23 01:45:20;;;;;;;8.10;4.83;;;18.60;70.30;;;;;;5164884;28;20507;-48
2023/07/23 01:47:51;;;;;;;6.77;4.50;;;18.50;70.30;;;;;;5159990;28;20487;-48
2023/07/23 01:50:21;;;;;;;7.80;5.20;;;18.30;72.10;;;;;;5161515;28;20303;-48
2023/07/23 01:52:52;;;;;;;7.60;4.63;;;18.20;73.90;;;;;;5158135;28;20574;-49
2023/07/23 01:55:23;;;;;;;5.37;4.90;;;18.10;76.30;;;;;;5156754;28;20201;-48
2023/07/23 01:57:53;;;;;;;6.80;4.53;;;17.90;77.80;;;;;;5157037;28;20190;-47
2023/07/23 02:00:24;;;;;;;4.47;4.03;;;17.70;81.50;;;;;;5158859;28;20513;-47
2023/07/23 02:02:54;;;;;;;5.20;3.97;;;17.60;87.40;;;;;;5161442;28;20208;-49
2023/07/23 02:05:25;;;;;;;6.30;4.90;;;17.50;87.70;;;;;;5158855;28;20297;-48
2023/07/23 02:07:56;;;;;;;9.57;4.30;;;17.50;88.60;;;;;;5163140;28;20661;-49
2023/07/23 02:10:26;;;;;;;13.00;5.43;;;17.50;90.30;;;;;;5161571;28;20247;-48
2023/07/23 02:12:57;;;;;;;5.30;4.80;;;17.40;91.30;;;;;;5148016;23;20230;-47
2023/07/23 02:15:29;;;;;;;7.63;4.83;;;17.40;92.60;;;;;;5113729;28;20250;-48
2023/07/23 02:17:59;;;;;;;4.80;4.40;;;17.40;93.20;;;;;;5114814;28;20651;-47
2023/07/23 02:20:30;;;;;;;14.40;4.50;;;17.30;94.10;;;;;;5118790;28;20449;-48
2023/07/23 02:23:01;;;;;;;5.20;4.23;;;17.30;95.30;;;;;;5117001;28;20296;-47
2023/07/23 02:25:36;;;;;;;5.87;4.90;;;17.30;97.20;;;;;;5119921;28;20200;-48
2023/07/23 02:28:09;;;;;;;5.40;4.90;;;17.20;99.50;;;;;;5109790;28;20185;-46
2023/07/23 02:30:39;;;;;;;5.27;4.83;;;17.10;99.90;;;;;;5110538;29;20426;-46
2023/07/23 02:33:10;;;;;;;6.20;4.83;;;17.00;99.90;;;;;;5111253;29;20463;-47
2023/07/23 02:35:42;;;;;;;5.03;4.70;;;16.90;99.90;;;;;;5097034;28;20253;-48
2023/07/23 02:38:13;;;;;;;6.10;5.60;;;16.80;99.90;;;;;;5118794;28;20187;-46
2023/07/23 02:40:43;;;;;;;8.70;5.00;;;16.60;99.90;;;;;;5119178;28;20436;-47
2023/07/23 02:43:14;;;;;;;5.30;4.90;;;16.60;99.90;;;;;;5112308;28;20214;-47
2023/07/23 02:45:45;;;;;;;6.00;5.03;;;16.50;99.90;;;;;;5110335;28;20518;-46
2023/07/23 02:48:15;;;;;;;6.50;4.80;;;16.40;99.90;;;;;;5115241;28;20195;-48
2023/07/23 02:50:46;;;;;;;8.93;5.50;;;16.30;99.90;;;;;;5117149;28;20236;-45
2023/07/23 02:53:17;;;;;;;5.03;4.60;;;16.20;99.90;;;;;;5113751;28;20218;-47
2023/07/23 02:55:47;;;;;;;7.30;4.90;;;16.20;99.90;;;;;;5104481;28;20198;-49
2023/07/23 02:58:18;;;;;;;5.47;4.97;;;16.10;99.90;;;;;;5116329;28;20185;-46
2023/07/23 03:00:49;;;;;;;5.23;4.63;;;16.10;99.90;;;;;;5113716;28;20198;-47
2023/07/23 03:03:20;;;;;;;7.63;5.47;;;16.10;99.90;;;;;;5114195;28;20285;-48
2023/07/23 03:05:50;;;;;;;12.23;5.83;;;16.00;99.90;;;;;;5116838;28;20491;-47
2023/07/23 03:08:21;;;;;;;6.87;5.10;;;15.90;99.90;;;;;;5122760;28;20193;-46
2023/07/23 03:10:52;;;;;;;6.00;5.47;;;15.90;99.90;;;;;;5124898;28;21496;-46
2023/07/23 03:13:22;;;;;;;5.53;5.00;;;15.80;99.90;;;;;;5122410;28;20221;-47
2023/07/23 03:15:53;;;;;;;8.27;5.27;;;15.80;99.90;;;;;;5111765;28;20631;-48
2023/07/23 03:18:23;;;;;;;6.07;5.53;;;15.80;99.90;;;;;;5121840;28;20182;-47
2023/07/23 03:20:54;;;;;;;7.67;6.33;;;15.80;99.90;;;;;;5115984;28;20724;-48
2023/07/23 03:23:26;;;;;;;8.50;5.80;;;15.80;99.90;;;;;;5112435;28;20208;-47
2023/07/23 03:25:56;;;;;;;7.37;5.63;;;15.80;99.90;;;;;;5112131;28;20210;-47
2023/07/23 03:28:27;;;;;;;7.10;5.80;;;15.80;99.90;;;;;;5112944;28;20453;-47
2023/07/23 03:30:58;;;;;;;8.60;6.17;;;15.80;99.90;;;;;;5099061;28;20246;-48
2023/07/23 03:33:29;;;;;;;5.90;5.40;;;15.90;99.90;;;;;;5105642;28;20194;-47
2023/07/23 03:35:59;;;;;;;9.50;6.40;;;15.90;99.90;;;;;;5119211;28;20447;-46
2023/07/23 03:38:30;;;;;;;8.20;6.70;;;15.90;99.90;;;;;;5112062;28;20749;-46
2023/07/23 03:41:00;;;;;;;7.03;5.93;;;16.00;99.90;;;;;;5117495;28;20193;-47
2023/07/23 03:43:31;;;;;;;5.73;5.27;;;16.00;99.90;;;;;;5112001;28;20229;-47
2023/07/23 03:46:02;;;;;;;8.53;6.20;;;16.00;99.90;;;;;;5115436;28;20190;-46
2023/07/23 03:48:32;;;;;;;7.47;5.97;;;16.10;99.90;;;;;;5118568;28;20295;-47
2023/07/23 03:51:03;;;;;;;6.90;6.20;;;16.10;99.90;;;;;;5116042;28;20193;-46
2023/07/23 03:53:34;;;;;;;10.00;6.57;;;16.10;99.90;;;;;;5116498;28;20221;-47
2023/07/23 03:56:04;;;;;;;5.90;5.30;;;16.10;99.90;;;;;;5112126;28;20191;-48
2023/07/23 03:58:35;;;;;;;7.80;6.20;;;16.20;99.90;;;;;;5122548;28;20216;-48
2023/07/23 04:01:05;;;;;;;5.60;5.10;;;16.20;99.90;;;;;;5108536;28;20187;-48
2023/07/23 04:03:36;;;;;;;9.30;5.93;;;16.20;99.90;;;;;;5115420;28;20206;-48
2023/07/23 04:06:07;;;;;;;6.57;5.83;;;16.20;99.90;;;;;;5127846;28;20190;-48
2023/07/23 04:08:37;;;;;;;7.83;6.63;;;16.30;99.90;;;;;;5117296;28;20265;-48
2023/07/23 04:11:08;;;;;;;6.53;5.93;;;16.30;99.90;;;;;;5115866;28;20195;-47
2023/07/23 04:13:38;;;;;;;7.53;6.43;;;16.30;99.90;;;;;;5124464;28;20245;-47
2023/07/23 04:16:10;;;;;;;6.60;5.77;;;16.40;99.90;;;;;;5121689;28;20186;-47
2023/07/23 04:18:49;;;;;;;6.40;5.80;;;16.40;99.90;;;;;;5113419;28;20187;-47
2023/07/23 04:21:21;;;;;;;7.90;6.00;;;16.50;99.90;;;;;;5116976;28;20948;-47
2023/07/23 04:23:55;;;;;;;6.90;6.23;;;16.60;99.90;;;;;;5128069;28;20548;-47
2023/07/23 04:26:27;;;;;;;6.10;5.50;;;16.70;99.90;;;;;;5119522;28;20449;-47
2023/07/23 04:28:58;;;;;;;7.50;6.20;;;16.80;99.90;;;;;;5119895;28;20446;-48
2023/07/23 04:31:31;;;;;;;6.80;6.10;;;16.90;99.90;;;;;;5118198;28;20446;-47
2023/07/23 04:34:02;;;;;;;7.37;6.50;;;16.90;99.90;;;;;;5114055;28;20907;-48
2023/07/23 04:36:32;;;;;;;7.13;5.87;;;17.10;99.90;;;;;;5118137;28;20575;-47
2023/07/23 04:39:03;;;;;;;11.60;6.50;;;17.00;99.90;;;;;;5126896;28;20199;-48
2023/07/23 04:41:34;;;;;;;9.50;5.77;;;16.90;99.90;;;;;;5120592;28;20178;-47
2023/07/23 04:44:04;;;;;;;5.73;5.20;;;16.90;99.90;;;;;;5121053;28;20198;-47
2023/07/23 04:46:35;;;;;;;7.07;6.27;;;16.90;99.90;;;;;;5114120;28;20225;-47
2023/07/23 04:49:05;;;;;;;6.03;5.37;;;16.90;99.90;;;;;;5119338;28;20222;-47
2023/07/23 04:51:36;;;;;;;9.20;6.10;;;17.00;99.90;;;;;;5120441;28;20718;-48
2023/07/23 04:54:07;;;;;;;6.77;6.03;;;17.00;99.90;;;;;;5122826;28;20221;-48
2023/07/23 04:56:37;;;;;;;6.60;6.00;;;17.10;99.90;;;;;;5116226;28;20186;-47
2023/07/23 04:59:08;;;;;;;7.13;6.13;;;17.30;99.90;;;;;;5113867;28;20206;-47
2023/07/23 05:01:39;;;;;;;6.43;5.83;;;17.40;99.90;;;;;;5117142;28;20186;-47
2023/07/23 05:04:10;;;;;;;7.97;6.80;;;17.40;99.90;;;;;;5118718;28;20183;-48
2023/07/23 05:06:40;;;;;;;6.37;5.83;;;17.50;99.90;;;;;;5116703;28;20221;-47
2023/07/23 05:09:11;;;;;;;9.60;5.70;;;17.50;99.90;;;;;;5119029;28;20470;-47
2023/07/23 05:11:42;;;;;;;6.53;5.90;;;17.60;99.90;;;;;;5116960;29;20511;-49
2023/07/23 05:14:12;;;;;;;7.03;6.00;;;17.70;99.90;;;;;;5115121;28;20216;-48
2023/07/23 05:16:43;;;;;;;6.63;6.03;;;17.80;99.90;;;;;;5123617;28;20214;-48
2023/07/23 05:19:13;;;;;;;6.20;5.50;;;17.90;99.90;;;;;;5113801;28;20508;-47
2023/07/23 05:21:44;;;;;;;6.33;5.20;;;18.00;99.90;;;;;;5111079;28;20199;-47
2023/07/23 05:24:14;;;;;;;6.33;5.83;;;18.00;99.90;;;;;;5119962;28;20731;-48
2023/07/23 05:26:45;;;;;;;6.60;6.07;;;18.00;99.90;;;;;;5114650;28;20221;-47
2023/07/23 05:29:16;;;;;;;7.63;6.80;;;18.00;99.90;;;;;;5111441;28;20204;-47
2023/07/23 05:31:46;;;;;;;6.30;5.70;;;18.10;99.90;;;;;;5115594;28;20229;-47
2023/07/23 05:34:17;;;;;;;6.00;5.40;;;18.20;99.90;;;;;;5112838;28;20210;-48
2023/07/23 05:36:47;;;;;;;6.17;5.57;;;18.30;99.90;;;;;;5119207;28;20195;-48
2023/07/23 05:39:18;;;;;;;9.87;6.50;;;18.40;99.90;;;;;;5115054;28;20189;-46
2023/07/23 05:41:49;;;;;;;7.40;6.47;;;18.40;99.90;;;;;;5111973;28;20591;-47
2023/07/23 05:44:19;;;;;;;6.80;5.00;;;18.30;99.90;;;;;;5123723;28;20213;-48
2023/07/23 05:46:50;;;;;;;6.07;5.50;;;18.30;99.90;;;;;;5122910;28;20311;-47
2023/07/23 05:49:20;;;;;;;6.77;6.03;;;18.50;99.90;;;;;;5114404;28;20187;-48
2023/07/23 05:51:52;;;;;;;7.03;6.23;;;18.80;99.90;;;;;;5127570;28;20198;-48
2023/07/23 05:54:23;;;;;;;5.20;4.80;;;19.00;99.90;;;;;;5115946;28;20208;-48
2023/07/23 05:56:53;;;;;;;5.97;5.47;;;18.90;99.90;;;;;;5115127;28;20442;-48
2023/07/23 05:59:24;;;;;;;5.97;5.43;;;19.20;99.90;;;;;;5122511;28;20182;-48
2023/07/23 06:01:54;;;;;;;7.70;5.13;;;19.30;99.90;;;;;;5089783;28;20234;-48
2023/07/23 06:04:25;;;;;;;9.40;5.43;;;19.60;99.90;;;;;;5108628;28;20183;-48
2023/07/23 06:06:56;;;;;;;8.93;5.90;;;19.90;99.90;;;;;;5114601;28;20190;-47
2023/07/23 06:09:26;;;;;;;16.43;6.20;;;20.10;99.90;;;;;;5121656;29;20659;-48
2023/07/23 06:11:57;;;;;;;6.03;5.53;;;20.40;99.90;;;;;;5117469;28;20210;-47
2023/07/23 06:14:27;;;;;;;6.00;5.37;;;21.00;99.90;;;;;;5115577;28;20757;-47
2023/07/23 06:16:58;;;;;;;7.50;4.80;;;21.40;99.90;;;;;;5119840;28;20205;-47
2023/07/23 06:19:29;;;;;;;5.53;5.13;;;21.50;99.90;;;;;;5103625;29;20183;-47
2023/07/23 06:21:59;;;;;;;5.60;5.10;;;21.50;99.90;;;;;;5114918;28;20199;-48
2023/07/23 06:24:30;;;;;;;5.40;4.90;;;21.80;99.90;;;;;;5119279;28;20186;-48
2023/07/23 06:27:00;;;;;;;6.97;5.27;;;22.50;99.90;;;;;;5120354;28;20190;-48
2023/07/23 06:29:31;;;;;;;9.90;5.03;;;23.20;99.90;;;;;;5116393;28;20182;-48
2023/07/23 06:32:02;;;;;;;5.10;4.63;;;23.50;97.50;;;;;;5113620;28;20203;-48
2023/07/23 06:34:32;;;;;;;6.10;4.77;;;24.00;95.90;;;;;;5115776;28;20237;-48
2023/07/23 06:37:04;;;;;;;5.93;3.93;;;24.20;93.40;;;;;;5114264;28;20900;-47
2023/07/23 06:39:34;;;;;;;4.87;4.47;;;24.40;91.20;;;;;;5117207;28;20191;-48
2023/07/23 06:42:05;;;;;;;5.23;4.73;;;24.40;90.40;;;;;;5120583;28;20442;-48
2023/07/23 06:44:39;;;;;;;4.43;4.13;;;24.00;88.50;;;;;;5107159;28;20574;-47
2023/07/23 06:47:11;;;;;;;6.10;3.90;;;23.40;88.80;;;;;;5119373;28;20960;-47
2023/07/23 06:49:42;;;;;;;4.37;3.97;;;22.80;90.40;;;;;;5117806;28;20945;-46
2023/07/23 06:52:13;;;;;;;3.30;3.00;;;22.50;90.50;;;;;;5120165;28;20463;-47
2023/07/23 06:54:43;;;;;;;4.20;3.90;;;22.40;91.30;;;;;;5113915;28;20276;-46
2023/07/23 06:57:14;;;;;;;4.03;3.73;;;22.60;91.10;;;;;;5117707;28;20197;-47
2023/07/23 06:59:46;;;;;;;4.67;4.27;;;22.80;90.70;;;;;;5114112;28;20194;-47
2023/07/23 07:02:16;;;;;;;4.37;3.97;;;23.60;90.20;;;;;;5107730;28;20568;-48
2023/07/23 07:04:47;;;;;;;3.67;3.40;;;26.00;83.40;;;;;;5115062;28;20430;-48
2023/07/23 07:07:18;;;;;;;4.50;4.07;;;28.40;65.60;;;;;;5117841;28;20208;-47
2023/07/23 07:09:48;;;;;;;3.40;3.20;;;30.10;55.10;;;;;;5118979;28;20191;-47
2023/07/23 07:12:19;;;;;;;3.37;3.10;;;30.80;50.30;;;;;;5115817;28;20320;-47
2023/07/23 07:14:49;;;;;;;4.27;3.87;;;31.10;48.90;;;;;;5118744;28;20931;-48
2023/07/23 07:17:20;;;;;;;3.40;3.20;;;31.10;48.10;;;;;;5101139;28;20206;-47
2023/07/23 07:19:51;;;;;;;3.70;2.77;;;31.50;45.10;;;;;;5111004;28;20220;-48
2023/07/23 07:22:22;;;;;;;3.30;3.07;;;32.20;44.80;;;;;;5111446;28;20213;-47
2023/07/23 07:24:52;;;;;;;4.70;3.87;;;33.40;41.60;;;;;;5102782;29;20200;-48
2023/07/23 07:27:24;;;;;;;3.77;3.43;;;33.00;40.60;;;;;;5117353;28;20201;-47
2023/07/23 07:29:54;;;;;;;3.40;3.20;;;32.00;41.30;;;;;;5104009;28;20213;-46
2023/07/23 07:32:25;;;;;;;3.77;3.47;;;30.50;43.90;;;;;;5114304;28;20546;-48
2023/07/23 07:34:55;;;;;;;4.70;3.27;;;29.20;46.00;;;;;;5108706;28;20186;-47
2023/07/23 07:37:27;;;;;;;3.70;3.50;;;28.40;48.00;;;;;;5112138;28;20189;-48
2023/07/23 07:39:57;;;;;;;10.53;4.23;;;27.70;49.40;;;;;;5111906;28;20178;-47
2023/07/23 07:42:28;;;;;;;7.17;4.10;;;27.30;50.80;;;;;;5115726;28;20457;-47
2023/07/23 07:44:59;;;;;;;4.80;4.30;;;27.10;51.70;;;;;;5120013;28;20530;-47
2023/07/23 07:47:29;;;;;;;3.80;3.50;;;27.50;51.90;;;;;;5111830;28;20191;-48
2023/07/23 07:50:00;;;;;;;4.53;3.50;;;27.30;51.50;;;;;;5115083;28;20630;-47
2023/07/23 07:52:30;;;;;;;4.10;3.63;;;27.40;50.60;;;;;;5111313;28;20203;-48
2023/07/23 07:55:01;;;;;;;4.77;3.63;;;27.40;50.60;;;;;;5112308;28;20191;-47
2023/07/23 07:57:33;;;;;;;4.30;3.73;;;27.30;51.20;;;;;;5113489;28;20202;-48
2023/07/23 08:00:07;;;;;;;3.77;3.43;;;27.20;51.20;;;;;;5116001;28;20188;-46
2023/07/23 08:02:39;;;;;;;7.93;3.93;;;26.90;51.20;;;;;;5111330;28;20469;-46
2023/07/23 08:05:10;;;;;;;3.50;3.30;;;26.60;51.00;;;;;;5103657;28;20493;-46
2023/07/23 08:07:43;;;;;;;3.73;3.50;;;26.40;51.80;;;;;;5116990;28;20440;-47
2023/07/23 08:10:14;;;;;;;3.90;3.40;;;25.90;52.70;;;;;;5113795;28;20496;-47
2023/07/23 08:12:45;;;;;;;4.43;3.50;;;25.30;53.60;;;;;;5122568;23;20486;-49
2023/07/23 08:15:16;;;;;;;3.63;3.43;;;24.70;54.90;;;;;;5132252;28;20491;-50
2023/07/23 08:17:47;;;;;;;3.60;3.30;;;24.30;55.60;;;;;;5138438;28;20562;-50
2023/07/23 08:20:18;;;;;;;7.10;3.60;;;24.10;56.50;;;;;;5136365;28;20971;-49
2023/07/23 08:22:49;;;;;;;4.07;3.77;;;24.00;55.70;;;;;;5138221;28;20197;-49
2023/07/23 08:25:20;;;;;;;4.50;3.87;;;23.90;56.60;;;;;;5132612;28;20452;-47
2023/07/23 08:27:58;;;;;;;3.97;3.67;;;23.70;56.60;;;;;;5139944;28;20671;-48
2023/07/23 08:30:30;;;;;;;3.53;3.33;;;23.80;57.10;;;;;;5129016;28;20196;-48
2023/07/23 08:33:01;;;;;;;5.20;3.70;;;23.90;56.70;;;;;;5133770;28;20476;-47
2023/07/23 08:35:32;;;;;;;3.80;3.50;;;24.00;55.80;;;;;;5136569;28;20909;-48
2023/07/23 08:38:03;;;;;;;3.27;2.97;;;24.10;56.10;;;;;;5134270;28;20448;-47
2023/07/23 08:40:40;;;;;;;2.97;2.77;;;24.00;56.40;;;;;;5143309;28;20210;-48
2023/07/23 08:43:49;;;;;;;3.53;3.33;;;24.00;56.20;;;;;;5142122;28;20197;-48
2023/07/23 08:46:24;;;;;;;3.57;3.37;;;24.40;55.50;;;;;;5146915;28;20968;-47
2023/07/23 08:48:54;;;;;;;8.83;3.93;;;24.50;55.40;;;;;;5142539;28;20436;-47
2023/07/23 08:51:34;;;;;;;3.63;3.43;;;24.40;55.40;;;;;;5141930;28;20438;-48
2023/07/23 08:54:06;;;;;;;3.93;2.80;;;24.50;55.30;;;;;;5138571;28;20202;-48
2023/07/23 08:56:38;;;;;;;4.60;4.17;;;24.50;55.20;;;;;;5135983;28;20448;-48
2023/07/23 08:59:09;;;;;;;3.83;3.63;;;24.70;55.80;;;;;;5140832;28;20421;-48
2023/07/23 09:01:41;;;;;;;2.80;2.60;;;24.90;54.70;;;;;;5144861;28;20429;-49
2023/07/23 09:04:13;;;;;;;3.87;3.57;;;24.80;55.00;;;;;;5142299;28;20457;-49
2023/07/23 09:06:44;;;;;;;3.30;3.10;;;24.90;55.40;;;;;;5147476;28;20444;-48
2023/07/23 09:09:15;;;;;;;3.90;3.60;;;25.30;55.40;;;;;;5137932;28;20450;-49
2023/07/23 09:11:45;;;;;;;3.67;3.37;;;25.60;54.40;;;;;;5143378;28;20189;-49
2023/07/23 09:14:17;;;;;;;6.17;3.30;;;25.80;54.00;;;;;;5140497;28;20214;-48
2023/07/23 09:16:49;;;;;;;3.27;3.07;;;26.10;52.60;;;;;;5144423;28;20523;-49
2023/07/23 09:19:24;;;;;;;2.67;2.57;;;26.40;52.10;;;;;;5137592;28;20437;-50
2023/07/23 09:21:57;;;;;;;3.80;3.47;;;26.80;51.10;;;;;;5149041;28;20447;-49
2023/07/23 09:24:35;;;;;;;3.23;3.03;;;27.00;50.40;;;;;;5141352;28;20535;-47
2023/07/23 09:27:10;;;;;;;3.30;3.03;;;27.20;49.70;;;;;;5144982;28;20929;-47
2023/07/23 09:29:41;;;;;;;3.07;2.83;;;27.40;49.50;;;;;;5136516;28;20773;-49
2023/07/23 09:32:23;;;;;;;3.90;3.60;;;27.40;48.20;;;;;;5144804;28;20903;-47
2023/07/23 09:34:55;;;;;;;3.87;3.13;;;27.50;48.20;;;;;;5135611;28;20457;-48
2023/07/23 09:37:29;;;;;;;8.80;3.70;;;27.30;48.50;;;;;;5136019;28;20531;-49
2023/07/23 09:39:59;;;;;;;3.00;2.90;;;27.30;48.50;;;;;;5137961;28;20780;-49
2023/07/23 09:42:30;;;;;;;4.20;3.70;;;27.40;47.40;;;;;;5135797;28;20461;-48
2023/07/23 09:45:01;;;;;;;3.37;3.17;;;27.60;47.40;;;;;;5133828;28;20182;-48
2023/07/23 09:47:31;;;;;;;4.50;2.90;;;27.60;47.10;;;;;;5132832;28;20232;-49
2023/07/23 09:50:02;;;;;;;3.17;2.97;;;27.50;47.70;;;;;;5121524;28;20189;-50
2023/07/23 09:52:37;;;;;;;3.13;2.93;;;27.50;47.80;;;;;;5127588;28;20226;-48
2023/07/23 09:55:09;;;;;;;3.00;2.80;;;27.60;47.30;;;;;;5133555;28;20811;-48
2023/07/23 09:57:41;;;;;;;6.00;3.20;;;27.40;47.50;;;;;;5141777;28;20834;-48
2023/07/23 10:00:13;;;;;;;11.20;4.20;;;27.70;47.70;;;;;;5154967;28;20464;-48
2023/07/23 10:02:47;;;;;;;4.47;4.07;;;27.50;47.80;;;;;;5142371;28;20488;-48
2023/07/23 10:05:18;;;;;;;3.20;2.53;;;27.20;48.10;;;;;;5120771;28;20445;-49
2023/07/23 10:07:49;;;;;;;3.23;2.93;;;27.00;47.70;;;;;;5138847;28;20545;-48
2023/07/23 10:10:20;;;;;;;3.53;3.07;;;27.10;47.90;;;;;;5139026;28;20443;-47
2023/07/23 10:12:50;;;;;;;3.30;3.00;;;27.20;48.20;;;;;;5142123;28;20205;-48
2023/07/23 10:15:21;;;;;;;3.17;2.97;;;27.40;48.00;;;;;;5140798;28;20256;-49
2023/07/23 10:17:58;;;;;;;5.90;3.70;;;27.40;47.90;;;;;;5143231;28;20598;-48
2023/07/23 10:20:31;;;;;;;3.63;3.23;;;27.50;47.90;;;;;;5130240;28;20189;-48
2023/07/23 10:23:05;;;;;;;5.17;3.17;;;27.30;48.20;;;;;;5140790;28;20452;-48
2023/07/23 10:25:36;;;;;;;3.10;2.90;;;27.30;47.70;;;;;;5143474;28;20949;-50
2023/07/23 10:28:08;;;;;;;2.30;2.17;;;27.40;46.30;;;;;;5130441;28;20445;-48
2023/07/23 10:30:39;;;;;;;3.70;2.70;;;27.60;46.50;;;;;;5136485;28;20204;-48
2023/07/23 10:33:09;;;;;;;5.17;3.20;;;27.80;46.60;;;;;;5131120;28;20935;-50
2023/07/23 10:35:52;;;;;;;5.07;2.37;;;27.90;45.50;;;;;;5136603;28;20181;-48
2023/07/23 10:38:24;;;;;;;3.10;2.90;;;27.90;46.20;;;;;;5152298;28;20182;-50
2023/07/23 10:40:55;;;;;;;8.60;3.60;;;27.90;45.60;;;;;;5134146;28;20434;-48
2023/07/23 10:43:38;;;;;;;3.77;3.57;;;28.00;44.70;;;;;;5136746;28;20804;-49
2023/07/23 10:46:12;;;;;;;3.27;2.97;;;28.30;44.80;;;;;;5138383;28;20202;-47
2023/07/23 10:48:44;;;;;;;3.70;3.40;;;28.20;45.20;;;;;;5140925;28;20420;-50
2023/07/23 10:51:20;;;;;;;3.90;3.53;;;28.40;44.70;;;;;;5140811;28;20437;-47
2023/07/23 10:54:02;;;;;;;5.30;3.20;;;28.30;44.90;;;;;;5142383;28;20478;-49
2023/07/23 10:56:39;;;;;;;2.70;2.50;;;28.70;45.90;;;;;;5139040;28;20432;-50
2023/07/23 10:59:14;;;;;;;2.97;2.77;;;28.90;44.90;;;;;;5134376;28;20783;-49
2023/07/23 11:01:49;;;;;;;3.33;3.13;;;29.20;44.80;;;;;;5129386;28;20432;-48
2023/07/23 11:04:26;;;;;;;3.40;3.20;;;29.30;44.40;;;;;;5133462;28;20452;-49
2023/07/23 11:06:58;;;;;;;3.83;3.30;;;29.30;43.30;;;;;;5140709;28;20433;-52
2023/07/23 11:09:39;;;;;;;3.40;3.13;;;28.60;43.60;;;;;;5136508;28;20442;-49
2023/07/23 11:12:11;;;;;;;3.50;3.20;;;28.30;45.20;;;;;;5138275;28;20539;-49
2023/07/23 11:14:41;;;;;;;3.47;3.13;;;28.30;44.70;;;;;;5139335;28;20503;-48
2023/07/23 11:17:12;;;;;;;3.23;3.00;;;28.30;44.90;;;;;;5141238;28;20462;-48
2023/07/23 11:19:46;;;;;;;3.17;2.97;;;28.50;45.40;;;;;;5136111;28;20260;-48
2023/07/23 11:22:16;;;;;;;2.70;2.60;;;28.80;44.50;;;;;;5142613;28;20204;-50
2023/07/23 11:24:47;;;;;;;6.53;4.40;;;28.70;44.40;;;;;;5132782;28;20445;-52
2023/07/23 11:27:17;;;;;;;3.50;3.30;;;28.60;44.70;;;;;;5122665;28;20189;-48
2023/07/23 11:29:48;;;;;;;3.47;3.17;;;28.70;44.40;;;;;;5106101;28;20189;-50
2023/07/23 11:32:19;;;;;;;3.10;2.80;;;28.80;44.60;;;;;;5139202;28;20285;-48
2023/07/23 11:34:49;;;;;;;4.43;4.10;;;28.90;44.80;;;;;;5140579;28;20251;-49
2023/07/23 11:37:21;;;;;;;4.37;3.40;;;29.10;44.70;;;;;;5137157;28;20264;-49
2023/07/23 11:39:52;;;;;;;3.40;3.00;;;28.80;44.00;;;;;;5140905;28;20217;-47
2023/07/23 11:42:22;;;;;;;3.53;3.23;;;28.80;44.40;;;;;;5134886;28;20458;-48
2023/07/23 11:45:04;;;;;;;2.63;2.50;;;28.70;44.50;;;;;;5136857;28;20182;-50
2023/07/23 11:47:51;;;;;;;3.50;3.20;;;28.90;44.40;;;;;;5128623;28;20181;-49
2023/07/23 11:50:24;;;;;;;3.97;3.57;;;29.30;43.90;;;;;;5139766;28;20432;-50
2023/07/23 11:53:03;;;;;;;4.57;2.70;;;29.30;44.00;;;;;;5134406;28;20469;-49
2023/07/23 11:55:34;;;;;;;4.20;3.20;;;29.30;44.50;;;;;;5145001;28;20515;-49
2023/07/23 11:58:04;;;;;;;3.80;3.50;;;29.30;43.90;;;;;;5145476;28;20539;-49
2023/07/23 12:00:39;;;;;;;3.23;3.07;;;29.50;44.20;;;;;;5142094;28;20189;-51
2023/07/23 12:03:10;;;;;;;5.30;3.50;;;29.90;43.70;;;;;;5143576;28;20216;-49
2023/07/23 12:05:41;;;;;;;4.13;3.83;;;29.90;42.70;;;;;;5146144;28;20495;-51
2023/07/23 12:08:12;;;;;;;2.30;2.20;;;29.90;42.30;;;;;;5157562;28;20247;-49
2023/07/23 12:10:42;;;;;;;4.60;3.47;;;29.90;41.70;;;;;;5141683;28;20440;-52
2023/07/23 12:13:13;;;;;;;4.23;3.70;;;29.90;41.20;;;;;;5142126;28;20240;-49
2023/07/23 12:15:49;;;;;;;4.67;3.37;;;29.90;40.70;;;;;;5138658;28;20190;-52
2023/07/23 12:18:22;;;;;;;3.20;3.00;;;29.90;40.00;;;;;;5138156;28;20268;-50
2023/07/23 12:21:00;;;;;;;3.10;2.80;;;30.00;40.60;;;;;;5138421;28;20440;-49
2023/07/23 12:23:30;;;;;;;6.70;3.00;;;29.90;39.90;;;;;;5136122;28;20463;-49
2023/07/23 12:26:01;;;;;;;3.57;3.27;;;29.90;40.30;;;;;;5137541;28;21027;-49
2023/07/23 12:28:31;;;;;;;2.70;2.50;;;30.10;40.60;;;;;;5141061;28;20224;-48
2023/07/23 12:31:02;;;;;;;5.63;2.60;;;30.30;39.60;;;;;;5145704;28;20223;-48
2023/07/23 12:33:33;;;;;;;5.73;2.70;;;30.20;39.30;;;;;;5148460;28;20581;-50
2023/07/23 12:36:04;;;;;;;3.17;2.37;;;30.10;40.00;;;;;;5148780;28;20219;-52
2023/07/23 12:38:34;;;;;;;2.00;1.90;;;30.20;40.20;;;;;;5141947;28;20177;-50
2023/07/23 12:41:05;;;;;;;3.30;2.80;;;30.30;39.60;;;;;;5129528;28;20193;-49
2023/07/23 12:43:38;;;;;;;2.43;2.30;;;30.30;40.20;;;;;;5134605;28;20216;-49
2023/07/23 12:46:09;;;;;;;2.17;2.03;;;30.30;38.90;;;;;;5141806;28;20173;-48
2023/07/23 12:48:39;;;;;;;4.43;3.40;;;30.30;38.30;;;;;;5124562;28;20433;-48
2023/07/23 12:51:10;;;;;;;3.20;3.00;;;30.30;37.80;;;;;;5139916;28;20273;-48
2023/07/23 12:53:40;;;;;;;2.67;2.47;;;30.30;38.40;;;;;;5148212;28;20224;-50
2023/07/23 12:56:11;;;;;;;11.30;5.40;;;30.40;38.70;;;;;;5142014;28;20185;-49
2023/07/23 12:58:42;;;;;;;3.33;3.03;;;30.60;38.10;;;;;;5142444;28;20737;-52
2023/07/23 13:01:13;;;;;;;4.67;3.10;;;30.40;37.60;;;;;;5138037;28;20288;-50
2023/07/23 13:03:43;;;;;;;3.93;2.80;;;30.20;38.30;;;;;;5142525;28;20669;-48
2023/07/23 13:06:14;;;;;;;2.10;2.10;;;30.00;37.60;;;;;;5142623;28;20277;-47
2023/07/23 13:08:44;;;;;;;2.07;1.97;;;29.90;36.60;;;;;;5137253;28;20530;-52